Domingo, 14 de Febrero del 2016

portal contactenos mapa del sitio buscar Revisar Correo Corporativo

|Reporte METAR por Reginal » ||Reporte TAF por Reginal » ||Reporte METAR, TAF y SIN覲TICO »

Reporte METAR por Regional

|| La Paz || Santa Cruz || Cochabamba || Beni - Pando ||

Informe METAR emitido cada hora.

Regional La Paz

ESTACIÓN

AEROPUERTO

HORA UTC

DESCRIPCIÓN

SLRY

Reyes

14-18S|67-21W

16:00

SLRY 141600Z 34008KT 9999 FEW016 BKN080 32/24 Q1012 A2989 HR64 RWY OPR 1 100M=

SLRQ

Rurrenabaque

14-25S|67-29W

16:00

COR SLRQ 141600Z 36006KT 9999 SCT017 SCT070 34/27 Q1010 A2985 HR67=

SLAP

Apolo

14-44S|68-24W

-

Mensaje no Recibido

SLSB

San Borja

14-51S|66-44W

16:00

SLSB 141600Z 31008KT 9999 BKN020 32/26 Q1009 A2982 HR67 RWY NML=

SLLP

Internaci贸nal El Alto

16-08S|68-10W

16:00

SLLP 141600Z 10007KT 050V170 9999 SCT017 16/06 Q1039 A3068 628.6 P4354 CI HR52 BECMG FEW020CB=

SLCN

Chara帽a

17-35S|69-25W

-

Mensaje no Recibido

SLOR

Oruro

17-57S|67-04W

16:00

SLOR 141600Z 06013KT 9999 FEW020 FEW023CB SCT200 20/07 Q1035 A3058 656.2 CB/SH/N HR43=

SLUY

Uyuni

20-27S|62-52W

-

SLUY QRX 141700Z=

Regional Cochabamba

ESTACIÓN

AEROPUERTO

HORA UTC

DESCRIPCIÓN

SLCB

Cochabamba

17-25S|66-10W

16:00

SLCB 141600Z 00000KT 9999 SCT025 FEW027CB OVC070 21/15 Q1026 A3031 752.4 HR66 CB/NE/E/SE/S SH/E/SE FU NOSIG=

SLSU

Sucre

19-00S|65-17W

16:00

SLSU 141600Z 00000KT 8000 -RA FEW002 SCT011 FEW030CB OVC070 13/ 12 Q1032 A3048 HR97 CB N/NW ST BAJOS SW=

SLPO

Potos铆

19-32S|65-43W

17:00

SLPO 131700Z 06006KT 9999 SCT020 BKN200 19/09 Q1036 A3059 HR52=

SLAG

Monteagudo

19-49S|63-58W

17:00

SLAG 131700Z WO ATTN=

SLVM

Villamontes

21-15S|63-24W

19:00

SLVM 131900Z 00000KT 9999 SCT023 40/23 Q1000 A2955 HR38 FU=

SLTJ

Tarija

21-33S|64-42W

16:00

SLTJ 141600Z 00000KT 9999 SCT030 BKN200 23/19 Q1021 A3016 HR73 AC=

SLYA

Yacuiba

21-57S|63-39W

16:00

SLYA 141600Z 00000KT 9999 SCT020 BKN070 27/24 Q1011 A2988 HR84 RERA=

SLBJ

Bermejo

22-46S|64-18W

17:00

SLBJ 131700Z 18010KT 9999 FEW015 SCT200 35/27 Q0999 A2950 HR62=

Regional Santa Cruz

ESTACIÓN

AEROPUERTO

HORA UTC

DESCRIPCIÓN

SLAS

Ascenci贸n de Guarayos

15-55S|63-09W

16:00

SLAS 141600Z 32008KT 9999 SCT017 33/25 Q1013 A2992 HR66 RWY NML =

SLCP

Concepci贸n

16-08S|62-01W

16:00

SLCP 141600Z 32012KT 9999 BKN017 32/24 Q1015 A2997 HR61 RWY NML =

SLJV

San Javier

16-16S|62-28W

16:00

SLJV 141600Z 36014KT 9999 SCT018 32/23 Q1012 A2988 HR57 RWY NML =

SLTI

San Mat铆as

16-20S|58-24W

16:00

SLTI 141600Z 36005KT 9999 BKN020 OVC070 29/25 Q1018 A3006 HR79 RWY NML=

SLSI

San Ignacio de Velasco

16-23S|60-57W

16:00

SLSI 141600Z 36012KT 9999 BKN017 32/24 Q1013 A2991 HR64 RWY NML =

SLVR

Internaci贸nal Viru Viru

17-38S|63-08W

16:00

SLVR 141600Z 25010G22KT 6000 -RA SCT018 BKN023 FEW030CB BKN200 26/25 Q1013 A2993 HR95 CB/S/SW NOSIG=

SLET

El Trompillo

17-48S|63-10W

16:00

COR SLET 141600Z 30010 1000 TSRA SCT015 FEW030CB BKN070 25/24 Q1013 A2992 HR84 CB S/SW/W NOSIG=

SLJE

San Jos茅 de Chiquitos

17-49S|60-44W

16:00

SLJE 141600Z 36005KT 9999 SCT020 BKN200 33/24 Q1013 A2991 HR59 RWY HUM OPR=

SLRB

Robor茅

18-19S|59-45W

16:00

SLRB 141600Z 36015KT 9999 FEW020 33/24 Q1013 A2991 HR59 RWY NML =

SLVG

Valle Grande

18-28S|64-05W

16:00

SLVG 141600Z 15007KT 9999 BKN018 OVC070 18/16 Q1025 A3027 HR86 RETS RWY WET OPR=

SLPS

Puerto Su谩rez

18-58S|57-49W

16:00

SLPS 141600Z 00000KT 9999 NSC 35/25 Q1010 A2983 HR55=

SLCA

Camiri

20-00S|63-31W

16:00

SLCA 141600Z 00000KT 9999 BKN013 OVC070 23/21 Q1015 A2997 HR88 RWY WET INOP=

Regional Beni

ESTACIÓN

AEROPUERTO

HORA UTC

DESCRIPCIÓN

SLGM

Guayaramer铆n

10-49S|65-20W

16:00

SLGM 141600Z 34008KT 9999 SCT017 SCT200 34/24 Q1011 A2988 HR57=

SLRI

Riberalta

11-00S|66-04W

16:00

SLRI 141600Z 36010KT 9999 BKN017 32/24 Q1012 A2989 HR67=

SLCO

Cobija

11-02S|68-47W

16:00

SLCO 141600Z 36008KT 9999 BKN020 33/25 Q1012 A2990 985.0 HR62=

SLJO

San Joaquin

13-03S|64-39W

16:00

SLJO 141600Z 32012KT 9999 SCT017 33/24 Q1011 A2988 HR61 RWY NML=

SLMG

San Magdalena

13-15S|64-03W

16:00

SLMG 141600Z 32006KT 9999 SCT017 32/25 Q1011 A2987 HR68 RWY NML=

SLRA

San Ram贸n

13-15S|64-36W

16:00

SLRA 141600Z 32012KT 9999 SCT017 33/24 Q1010 A2985 HR60 RWY NML=

SLBU

Baures

13-39S|63-42W

16:00

SLBU 141600Z 35010KT 9999 BKN017 33/26 Q1011 A2988 HR65 RWY NML=

SLSA

Santa Ana de Yacuma

13-45S|65-26W

16:00

SLSA 141600Z 35014KT 9999 SCT017 33/24 Q1010 A2984 HR60=

SLSR

Santa Rosa

14-04S|66-47W

16:00

SLSR 141600Z 35015KT 9999 SCT017 33/25 Q1006 A2971 HR61 RWY NML=

SLTR

Trinidad

14-49S|64-54W

16:00

SLTR 141600Z 31010KT 270V340 9999 FEW017 33/25 Q1011 A2987 992.9 HR63 NOSIG=

SLSM

San Ignacio de Moxos

14-57S|65-38W

16:00

SLSM 141600Z 32010KT 9999 BKN017 32/25 Q1011 A2986 HR69 RWY NML=